Time;durP1;ratioP1;P1;durP2;ratioP2;P2;SDS_P1;SDS_P2;PMS_P1;PMS_P2;Temp;Humidity;BMP_temperature;BMP_pressure;BME280_temperature;BME280_humidity;BME280_pressure;Samples;Min_cycle;Max_cycle;Signal;HPM_P1;HPM_P2
2021/07/06 00:01:51;;;;;;;17.35;10.82;;;;;;;;;;4407294;32;20165;-77
2021/07/06 00:04:35;;;;;;;22.23;11.70;;;;;;;;;;4344757;33;20214;-77
2021/07/06 00:07:25;;;;;;;17.60;11.12;;;;;;;;;;4332230;33;20210;-77
2021/07/06 00:09:51;;;;;;;15.55;11.88;;;;;;;;;;4344608;33;20147;-77
2021/07/06 00:12:47;;;;;;;17.30;11.15;;;;;;;;;;4347199;32;20143;-77
2021/07/06 00:15:23;;;;;;;;;;;;;;;;;;;;;
2021/07/06 00:18:37;;;;;;;17.65;12.13;;;;;;;;;;4400345;32;20200;-77
2021/07/06 00:21:30;;;;;;;16.52;11.12;;;;;;;;;;4343992;33;20167;-77
2021/07/06 00:24:35;;;;;;;16.80;12.75;;;;;;;;;;4344323;33;20544;-77
2021/07/06 00:27:49;;;;;;;;;;;;;;;;;;;;;
2021/07/06 00:36:28;;;;;;;20.60;14.15;;;;;;;;;;4286128;33;20534;-77
2021/07/06 00:39:18;;;;;;;25.65;16.87;;;;;;;;;;4339129;33;20151;-78
2021/07/06 00:48:39;;;;;;;24.70;15.73;;;;;;;;;;4358630;32;20212;-77
2021/07/06 00:50:42;;;;;;;29.35;17.83;;;;;;;;;;4349888;32;20221;-78
2021/07/06 00:55:53;;;;;;;23.60;15.60;;;;;;;;;;4391123;32;20483;-77
2021/07/06 00:58:31;;;;;;;17.67;13.75;;;;;;;;;;4391141;32;20230;-78
2021/07/06 01:00:56;;;;;;;24.30;16.55;;;;;;;;;;4390644;32;20169;-77
2021/07/06 01:03:22;;;;;;;20.55;14.15;;;;;;;;;;4390626;32;20533;-77
2021/07/06 01:06:12;;;;;;;22.00;15.43;;;;;;;;;;4373554;32;20182;-78
2021/07/06 01:08:38;;;;;;;20.75;13.70;;;;;;;;;;4386978;32;20644;-76
2021/07/06 01:11:04;;;;;;;16.65;13.13;;;;;;;;;;4390662;32;20134;-77
2021/07/06 01:13:33;;;;;;;16.70;12.82;;;;;;;;;;4387212;32;20180;-77
2021/07/06 01:16:24;;;;;;;18.62;13.02;;;;;;;;;;4375974;32;20131;-77
2021/07/06 01:18:59;;;;;;;;;;;;;;;;;;;;;
2021/07/06 01:21:27;;;;;;;19.08;13.18;;;;;;;;;;4387071;32;20189;-77
2021/07/06 01:23:55;;;;;;;19.37;13.10;;;;;;;;;;4390274;32;20146;-77
2021/07/06 01:26:21;;;;;;;15.63;12.05;;;;;;;;;;4391051;32;20138;-77
2021/07/06 01:28:46;;;;;;;18.20;12.30;;;;;;;;;;4385471;32;20233;-77
2021/07/06 01:31:11;;;;;;;13.93;11.10;;;;;;;;;;4390113;32;20142;-77
2021/07/06 01:33:38;;;;;;;12.70;10.35;;;;;;;;;;4389777;32;20173;-77
2021/07/06 01:36:07;;;;;;;13.75;9.73;;;;;;;;;;4390895;32;20166;-77
2021/07/06 01:38:33;;;;;;;15.55;9.68;;;;;;;;;;4389757;32;20146;-77
2021/07/06 01:40:59;;;;;;;13.68;8.98;;;;;;;;;;4390564;32;20204;-77
2021/07/06 01:43:24;;;;;;;12.75;9.00;;;;;;;;;;4386938;32;20184;-77
2021/07/06 01:48:52;;;;;;;11.23;7.85;;;;;;;;;;4390646;32;20494;-77
2021/07/06 01:51:17;;;;;;;9.70;8.32;;;;;;;;;;4400339;32;20180;-77
2021/07/06 01:53:42;;;;;;;9.05;8.02;;;;;;;;;;4405506;32;20146;-77
2021/07/06 01:56:08;;;;;;;9.82;6.82;;;;;;;;;;4405739;32;20153;-77
2021/07/06 01:59:30;;;;;;;10.68;7.07;;;;;;;;;;4405367;32;20165;-77
2021/07/06 02:01:36;;;;;;;8.32;6.90;;;;;;;;;;4389072;32;20283;-77
2021/07/06 02:04:34;;;;;;;8.43;6.62;;;;;;;;;;4405454;32;20122;-77
2021/07/06 02:06:59;;;;;;;8.63;7.28;;;;;;;;;;4396651;32;20210;-77
2021/07/06 02:09:24;;;;;;;9.68;6.75;;;;;;;;;;4389387;32;20456;-77
2021/07/06 02:11:49;;;;;;;10.15;6.97;;;;;;;;;;4389718;32;20528;-77
2021/07/06 02:14:16;;;;;;;8.68;6.18;;;;;;;;;;4389987;32;20177;-77
2021/07/06 02:16:44;;;;;;;6.53;5.93;;;;;;;;;;4389471;32;20139;-77
2021/07/06 02:19:10;;;;;;;10.20;6.43;;;;;;;;;;4390246;32;20131;-77
2021/07/06 02:21:38;;;;;;;9.80;5.82;;;;;;;;;;4388862;32;20151;-77
2021/07/06 02:24:06;;;;;;;9.25;6.72;;;;;;;;;;4389855;32;20191;-77
2021/07/06 02:26:31;;;;;;;9.93;6.68;;;;;;;;;;4390071;32;20200;-77
2021/07/06 02:28:57;;;;;;;8.20;6.18;;;;;;;;;;4394441;32;20150;-77
2021/07/06 02:31:31;;;;;;;7.22;6.47;;;;;;;;;;4404847;32;20157;-77
2021/07/06 02:33:59;;;;;;;9.48;5.85;;;;;;;;;;4404652;32;20137;-77
2021/07/06 02:36:28;;;;;;;8.13;6.07;;;;;;;;;;4404673;32;20180;-77
2021/07/06 02:42:05;;;;;;;6.43;5.68;;;;;;;;;;4375237;32;20204;-77
2021/07/06 02:44:31;;;;;;;6.97;5.93;;;;;;;;;;4407183;32;20130;-78
2021/07/06 02:46:58;;;;;;;6.55;5.87;;;;;;;;;;4408050;32;20414;-77
2021/07/06 02:49:40;;;;;;;8.55;4.70;;;;;;;;;;4407393;32;20176;-77
2021/07/06 02:52:41;;;;;;;9.27;5.00;;;;;;;;;;4392622;32;20160;-77
2021/07/06 02:55:25;;;;;;;4.90;3.60;;;;;;;;;;4375376;32;20166;-77
2021/07/06 02:57:54;;;;;;;7.12;4.20;;;;;;;;;;4392782;32;20130;-77
2021/07/06 03:00:22;;;;;;;6.68;4.25;;;;;;;;;;4392018;32;20165;-78
2021/07/06 03:02:48;;;;;;;6.40;3.80;;;;;;;;;;4392096;32;20704;-78
2021/07/06 03:05:15;;;;;;;4.85;3.62;;;;;;;;;;4378511;32;20224;-78
2021/07/06 03:07:41;;;;;;;4.60;3.62;;;;;;;;;;4392353;32;20593;-77
2021/07/06 03:10:11;;;;;;;6.40;3.85;;;;;;;;;;4391780;32;20133;-77
2021/07/06 03:12:37;;;;;;;4.03;3.62;;;;;;;;;;4391710;32;20172;-77
2021/07/06 03:15:04;;;;;;;5.15;3.85;;;;;;;;;;4391902;32;20197;-77
2021/07/06 03:17:29;;;;;;;9.35;4.15;;;;;;;;;;4378237;32;20538;-77
2021/07/06 03:19:54;;;;;;;6.32;4.30;;;;;;;;;;4378936;32;20150;-77
2021/07/06 03:22:22;;;;;;;5.43;4.28;;;;;;;;;;4391989;32;20189;-78
2021/07/06 03:24:48;;;;;;;6.55;5.07;;;;;;;;;;4391471;32;20241;-77
2021/07/06 03:27:13;;;;;;;6.15;5.53;;;;;;;;;;4392130;32;20142;-77
2021/07/06 03:29:44;;;;;;;7.05;6.15;;;;;;;;;;4391468;32;20158;-77
2021/07/06 03:32:15;;;;;;;7.72;6.05;;;;;;;;;;4391990;32;20138;-77
2021/07/06 03:34:48;;;;;;;9.25;6.57;;;;;;;;;;4391944;32;20142;-77
2021/07/06 03:37:25;;;;;;;8.18;6.85;;;;;;;;;;4392564;32;20565;-78
2021/07/06 03:40:00;;;;;;;9.93;6.62;;;;;;;;;;4392034;32;20123;-78
2021/07/06 03:45:23;;;;;;;9.20;5.93;;;;;;;;;;4378881;32;20155;-78
2021/07/06 03:47:51;;;;;;;8.15;5.72;;;;;;;;;;4392265;32;20177;-78
2021/07/06 03:50:44;;;;;;;8.23;5.90;;;;;;;;;;4390266;32;20580;-78
2021/07/06 03:53:17;;;;;;;8.63;5.50;;;;;;;;;;4391781;32;20173;-78
2021/07/06 03:55:43;;;;;;;8.00;5.53;;;;;;;;;;4391407;32;20157;-78
2021/07/06 03:58:08;;;;;;;7.50;4.45;;;;;;;;;;4391255;32;20569;-78
2021/07/06 04:00:36;;;;;;;7.60;4.40;;;;;;;;;;4391431;32;20586;-78
2021/07/06 04:03:04;;;;;;;5.28;4.22;;;;;;;;;;4391275;32;20204;-78
2021/07/06 04:05:29;;;;;;;4.72;3.92;;;;;;;;;;4391454;32;20165;-78
2021/07/06 04:08:20;;;;;;;4.87;3.62;;;;;;;;;;4391560;32;20438;-78
2021/07/06 04:10:46;;;;;;;5.62;3.03;;;;;;;;;;4386724;32;20243;-78
2021/07/06 04:13:21;;;;;;;5.30;3.28;;;;;;;;;;4391348;32;20556;-81
2021/07/06 04:15:46;;;;;;;5.50;2.80;;;;;;;;;;4392179;32;20142;-80
2021/07/06 04:18:11;;;;;;;3.10;2.80;;;;;;;;;;4391566;32;20560;-77
2021/07/06 04:20:36;;;;;;;4.47;2.75;;;;;;;;;;4391052;32;20567;-78
2021/07/06 04:23:02;;;;;;;3.90;2.87;;;;;;;;;;4390901;32;20188;-79
2021/07/06 04:25:37;;;;;;;3.90;2.90;;;;;;;;;;4389089;32;20185;-78
2021/07/06 04:28:02;;;;;;;3.83;2.90;;;;;;;;;;4384786;32;20619;-79
2021/07/06 04:30:30;;;;;;;2.70;2.50;;;;;;;;;;4377166;32;20193;-78
2021/07/06 04:32:59;;;;;;;4.03;2.15;;;;;;;;;;4391114;32;20123;-78
2021/07/06 04:35:24;;;;;;;5.07;2.60;;;;;;;;;;4377034;32;20588;-77
2021/07/06 04:37:50;;;;;;;3.65;2.35;;;;;;;;;;4390893;32;20150;-78
2021/07/06 04:40:16;;;;;;;4.65;2.65;;;;;;;;;;4390867;32;20123;-78
2021/07/06 04:43:11;;;;;;;3.33;2.40;;;;;;;;;;4390330;32;20458;-78
2021/07/06 04:45:37;;;;;;;3.67;2.87;;;;;;;;;;4388922;32;20174;-78
2021/07/06 04:48:06;;;;;;;4.57;2.70;;;;;;;;;;4391069;32;20176;-80
2021/07/06 04:50:36;;;;;;;4.10;2.65;;;;;;;;;;4395099;32;20241;-79
2021/07/06 04:53:02;;;;;;;4.43;2.83;;;;;;;;;;4406659;32;20123;-78
2021/07/06 04:55:27;;;;;;;3.58;2.90;;;;;;;;;;4406298;32;20568;-78
2021/07/06 04:57:53;;;;;;;4.05;3.12;;;;;;;;;;4406189;32;20130;-78
2021/07/06 05:00:18;;;;;;;5.57;3.17;;;;;;;;;;4405768;32;20130;-78
2021/07/06 05:02:45;;;;;;;6.53;3.12;;;;;;;;;;4399547;32;20153;-78
2021/07/06 05:05:13;;;;;;;4.40;2.90;;;;;;;;;;4405404;32;20210;-80
2021/07/06 05:07:44;;;;;;;3.30;2.67;;;;;;;;;;4396336;32;20225;-78
2021/07/06 05:10:10;;;;;;;3.22;2.80;;;;;;;;;;4380879;32;20158;-77
2021/07/06 05:12:36;;;;;;;2.40;2.20;;;;;;;;;;4365352;32;20174;-78
2021/07/06 05:15:03;;;;;;;4.62;2.60;;;;;;;;;;4384721;32;20179;-77
2021/07/06 05:17:28;;;;;;;3.62;2.53;;;;;;;;;;4379665;32;20212;-77
2021/07/06 05:19:53;;;;;;;5.15;2.58;;;;;;;;;;4387902;32;20293;-79
2021/07/06 05:22:19;;;;;;;4.85;2.40;;;;;;;;;;4390402;32;20519;-79
2021/07/06 05:24:44;;;;;;;6.18;2.20;;;;;;;;;;4389965;32;20138;-78
2021/07/06 05:27:21;;;;;;;3.10;2.17;;;;;;;;;;4390263;32;20127;-78
2021/07/06 05:29:46;;;;;;;3.28;1.90;;;;;;;;;;4390249;32;20146;-78
2021/07/06 05:32:14;;;;;;;5.68;2.10;;;;;;;;;;4389932;32;20229;-77
2021/07/06 05:34:40;;;;;;;7.30;2.20;;;;;;;;;;4376118;32;20195;-78
2021/07/06 05:37:26;;;;;;;4.10;2.22;;;;;;;;;;4389824;32;20142;-76
2021/07/06 05:39:58;;;;;;;2.62;2.22;;;;;;;;;;4395601;32;20673;-78
2021/07/06 05:42:23;;;;;;;3.90;2.22;;;;;;;;;;4405705;32;20209;-78
2021/07/06 05:44:49;;;;;;;7.30;2.40;;;;;;;;;;4387666;32;20220;-78
2021/07/06 05:47:23;;;;;;;4.55;2.30;;;;;;;;;;4376004;32;20161;-78
2021/07/06 05:49:49;;;;;;;5.10;1.85;;;;;;;;;;4390984;32;20145;-79
2021/07/06 05:52:27;;;;;;;;;;;;;;;;;;;;;
2021/07/06 05:55:05;;;;;;;2.97;2.12;;;;;;;;;;4389538;32;20150;-77
2021/07/06 05:57:30;;;;;;;4.72;2.00;;;;;;;;;;4390177;32;20150;-79
2021/07/06 05:59:56;;;;;;;3.50;2.00;;;;;;;;;;4388556;32;20184;-77
2021/07/06 06:02:34;;;;;;;2.55;2.00;;;;;;;;;;4387028;32;20238;-77
2021/07/06 06:04:59;;;;;;;3.58;2.10;;;;;;;;;;4375222;32;20154;-78
2021/07/06 06:07:25;;;;;;;6.03;2.10;;;;;;;;;;4382019;32;20163;-78
2021/07/06 06:09:53;;;;;;;3.08;1.85;;;;;;;;;;4359779;32;20159;-79
2021/07/06 06:12:19;;;;;;;2.00;1.75;;;;;;;;;;4374515;32;20156;-76
2021/07/06 06:14:44;;;;;;;2.12;1.50;;;;;;;;;;4386043;32;20166;-77
2021/07/06 06:17:09;;;;;;;5.12;1.73;;;;;;;;;;4372637;32;20154;-78
2021/07/06 06:19:37;;;;;;;3.05;1.15;;;;;;;;;;4392581;32;20193;-79
2021/07/06 06:22:12;;;;;;;3.60;1.33;;;;;;;;;;4393592;32;20188;-79
2021/07/06 06:24:38;;;;;;;3.03;1.30;;;;;;;;;;4395081;32;20338;-78
2021/07/06 06:27:12;;;;;;;5.12;1.52;;;;;;;;;;4395130;32;20134;-78
2021/07/06 06:29:37;;;;;;;3.28;1.10;;;;;;;;;;4395213;32;20157;-79
2021/07/06 06:32:05;;;;;;;5.85;1.62;;;;;;;;;;4393828;32;20163;-78
2021/07/06 06:34:42;;;;;;;2.10;1.08;;;;;;;;;;4394668;32;20139;-77
2021/07/06 06:37:07;;;;;;;3.50;1.20;;;;;;;;;;4395300;32;20156;-78
2021/07/06 06:39:32;;;;;;;3.90;1.20;;;;;;;;;;4390611;32;20181;-78
2021/07/06 06:42:05;;;;;;;4.80;1.30;;;;;;;;;;4394333;32;20174;-76
2021/07/06 06:44:41;;;;;;;3.58;1.20;;;;;;;;;;4394883;32;20158;-77
2021/07/06 06:47:14;;;;;;;2.92;1.08;;;;;;;;;;4392946;32;20137;-77
2021/07/06 06:49:39;;;;;;;4.95;1.60;;;;;;;;;;4394373;32;20240;-78
2021/07/06 06:52:05;;;;;;;3.53;1.30;;;;;;;;;;4405652;32;20591;-77
2021/07/06 06:54:49;;;;;;;7.93;1.23;;;;;;;;;;4400865;32;20169;-77
2021/07/06 06:57:14;;;;;;;3.47;1.35;;;;;;;;;;4394640;32;20183;-77
2021/07/06 06:59:43;;;;;;;6.30;1.40;;;;;;;;;;4394977;32;20217;-77
2021/07/06 07:08:05;;;;;;;4.72;1.62;;;;;;;;;;4362304;32;20135;-77
2021/07/06 07:10:53;;;;;;;;;;;;;;;;;;;;;
2021/07/06 07:13:24;;;;;;;4.80;1.40;;;;;;;;;;4394896;32;20552;-78
2021/07/06 07:15:59;;;;;;;4.65;1.50;;;;;;;;;;4394635;32;20139;-77
2021/07/06 07:18:24;;;;;;;3.15;1.27;;;;;;;;;;4394821;32;20125;-76
2021/07/06 07:21:28;;;;;;;3.92;1.10;;;;;;;;;;4399659;32;20154;-79
2021/07/06 07:23:53;;;;;;;3.17;1.00;;;;;;;;;;4386328;32;20196;-76
2021/07/06 07:29:10;;;;;;;2.28;0.80;;;;;;;;;;4332669;33;20186;-77
2021/07/06 07:32:00;;;;;;;2.95;0.82;;;;;;;;;;4331040;33;20167;-77
2021/07/06 07:34:54;;;;;;;4.57;0.82;;;;;;;;;;4383559;32;20146;-77
2021/07/06 07:37:43;;;;;;;;;;;;;;;;;;;;;
2021/07/06 07:41:06;;;;;;;3.30;1.10;;;;;;;;;;4407336;32;20207;-78
2021/07/06 07:43:25;;;;;;;1.67;0.77;;;;;;;;;;4404221;32;20200;-77
2021/07/06 07:48:56;;;;;;;4.03;0.82;;;;;;;;;;4402595;32;20193;-76
2021/07/06 07:54:23;;;;;;;2.00;0.82;;;;;;;;;;4406941;32;20181;-76
2021/07/06 07:56:50;;;;;;;1.30;0.77;;;;;;;;;;4390966;32;20182;-77
2021/07/06 07:59:29;;;;;;;4.45;1.10;;;;;;;;;;4392326;32;20177;-77
2021/07/06 08:02:23;;;;;;;2.17;0.73;;;;;;;;;;4391427;32;20181;-77
2021/07/06 08:04:52;;;;;;;7.40;1.08;;;;;;;;;;4383213;32;20174;-78
2021/07/06 08:07:38;;;;;;;3.33;1.00;;;;;;;;;;4381824;32;20134;-77
2021/07/06 08:10:33;;;;;;;7.37;1.10;;;;;;;;;;4376258;32;20192;-78
2021/07/06 08:13:06;;;;;;;1.15;0.93;;;;;;;;;;4360130;32;20194;-78
2021/07/06 08:15:32;;;;;;;2.60;1.08;;;;;;;;;;4385411;32;20193;-78
2021/07/06 08:17:57;;;;;;;5.25;0.80;;;;;;;;;;4388987;32;20150;-77
2021/07/06 08:20:23;;;;;;;4.05;0.90;;;;;;;;;;4390218;32;20147;-78
2021/07/06 08:22:48;;;;;;;3.08;0.80;;;;;;;;;;4390983;32;20251;-78
2021/07/06 08:25:13;;;;;;;4.90;1.02;;;;;;;;;;4390991;32;20192;-76
2021/07/06 08:27:39;;;;;;;5.37;1.00;;;;;;;;;;4390830;32;20159;-78
2021/07/06 08:30:05;;;;;;;4.85;1.20;;;;;;;;;;4388627;32;20202;-78
2021/07/06 08:32:31;;;;;;;6.45;1.30;;;;;;;;;;4391230;32;20173;-77
2021/07/06 08:35:05;;;;;;;5.30;1.62;;;;;;;;;;4391093;32;20489;-78
2021/07/06 08:37:31;;;;;;;2.15;0.90;;;;;;;;;;4390097;32;20153;-77
2021/07/06 08:39:56;;;;;;;4.10;0.90;;;;;;;;;;4406147;32;20545;-77
2021/07/06 08:42:30;;;;;;;2.62;0.93;;;;;;;;;;4394761;32;20282;-78
2021/07/06 08:45:08;;;;;;;7.28;1.30;;;;;;;;;;4391454;32;20181;-77
2021/07/06 08:47:36;;;;;;;5.55;0.90;;;;;;;;;;4391916;32;20123;-77
2021/07/06 08:50:04;;;;;;;4.30;0.85;;;;;;;;;;4385844;32;20158;-77
2021/07/06 08:52:30;;;;;;;5.53;1.10;;;;;;;;;;4385564;32;20138;-77
2021/07/06 08:55:14;;;;;;;2.25;0.68;;;;;;;;;;4389803;32;20551;-77
2021/07/06 08:57:52;;;;;;;4.68;1.10;;;;;;;;;;4384496;32;20142;-77
2021/07/06 09:00:18;;;;;;;8.50;0.90;;;;;;;;;;4374989;32;20233;-77
2021/07/06 09:03:07;;;;;;;7.15;0.80;;;;;;;;;;4386235;32;20434;-78
2021/07/06 09:05:33;;;;;;;2.37;1.00;;;;;;;;;;4391195;32;20427;-77
2021/07/06 09:08:06;;;;;;;8.00;1.17;;;;;;;;;;4390575;32;20207;-76
2021/07/06 09:10:35;;;;;;;4.95;1.10;;;;;;;;;;4387697;32;20220;-77
2021/07/06 09:13:03;;;;;;;6.95;1.12;;;;;;;;;;4390546;32;20138;-76
2021/07/06 09:15:45;;;;;;;9.43;1.50;;;;;;;;;;4389954;32;20579;-76
2021/07/06 09:18:13;;;;;;;6.00;1.27;;;;;;;;;;4390808;32;20169;-77
2021/07/06 09:20:39;;;;;;;9.63;1.77;;;;;;;;;;4390555;32;20567;-77
2021/07/06 09:23:18;;;;;;;7.45;1.35;;;;;;;;;;4389572;32;20449;-76
2021/07/06 09:25:47;;;;;;;4.15;1.25;;;;;;;;;;4386545;32;20150;-79
2021/07/06 09:28:42;;;;;;;4.87;1.00;;;;;;;;;;4390074;32;20139;-79
2021/07/06 09:31:26;;;;;;;5.37;1.10;;;;;;;;;;4380510;32;20181;-80
2021/07/06 09:34:23;;;;;;;;;;;;;;;;;;;;;
2021/07/06 09:36:54;;;;;;;4.40;1.23;;;;;;;;;;4371843;32;20186;-77
2021/07/06 09:40:41;;;;;;;7.00;1.55;;;;;;;;;;4384632;32;20563;-77
2021/07/06 09:42:47;;;;;;;4.03;1.30;;;;;;;;;;4380838;32;20580;-77
2021/07/06 09:45:12;;;;;;;8.30;1.35;;;;;;;;;;4390483;32;20160;-78
2021/07/06 09:47:38;;;;;;;6.40;0.95;;;;;;;;;;4390073;32;20182;-79
2021/07/06 09:50:03;;;;;;;9.57;1.40;;;;;;;;;;4389976;32;20241;-78
2021/07/06 09:52:33;;;;;;;6.43;1.37;;;;;;;;;;4389876;32;20457;-75
2021/07/06 09:55:10;;;;;;;6.97;1.30;;;;;;;;;;4393515;32;20149;-78
2021/07/06 09:57:45;;;;;;;4.40;1.00;;;;;;;;;;4402385;32;20184;-77
2021/07/06 10:00:14;;;;;;;5.57;1.12;;;;;;;;;;4402208;32;20214;-76
2021/07/06 10:02:45;;;;;;;4.47;1.10;;;;;;;;;;4387818;32;20198;-77
2021/07/06 10:05:18;;;;;;;3.30;1.20;;;;;;;;;;4397050;32;20220;-77
2021/07/06 10:07:46;;;;;;;4.20;1.05;;;;;;;;;;4405163;32;20582;-78
2021/07/06 10:10:13;;;;;;;7.12;1.30;;;;;;;;;;4402584;32;20195;-78
2021/07/06 10:12:42;;;;;;;5.85;1.10;;;;;;;;;;4392498;32;20658;-78
2021/07/06 10:15:18;;;;;;;3.62;1.00;;;;;;;;;;4397421;32;20131;-78
2021/07/06 10:17:44;;;;;;;4.35;1.10;;;;;;;;;;4400370;32;20483;-78
2021/07/06 10:20:55;;;;;;;6.95;1.02;;;;;;;;;;4403591;32;20165;-78
2021/07/06 10:23:05;;;;;;;6.65;1.30;;;;;;;;;;4394419;32;20173;-79
2021/07/06 10:25:53;;;;;;;3.75;0.80;;;;;;;;;;4410542;32;20138;-79
2021/07/06 10:28:19;;;;;;;3.62;0.80;;;;;;;;;;4406908;32;20216;-79
2021/07/06 10:30:46;;;;;;;5.47;1.17;;;;;;;;;;4397063;32;20213;-78
2021/07/06 10:33:23;;;;;;;4.60;0.85;;;;;;;;;;4401223;32;20198;-78
2021/07/06 10:36:16;;;;;;;2.83;0.88;;;;;;;;;;4390576;32;20181;-77
2021/07/06 10:38:45;;;;;;;2.60;0.82;;;;;;;;;;4397744;32;20155;-78
2021/07/06 10:41:34;;;;;;;3.45;1.00;;;;;;;;;;4389437;32;20176;-77
2021/07/06 10:44:00;;;;;;;4.75;1.20;;;;;;;;;;4398852;32;20601;-77
2021/07/06 10:46:48;;;;;;;5.30;1.30;;;;;;;;;;4404132;32;20139;-78
2021/07/06 10:49:14;;;;;;;4.37;1.00;;;;;;;;;;4397128;32;20158;-78
2021/07/06 10:51:50;;;;;;;4.05;1.05;;;;;;;;;;4389580;32;20536;-80
2021/07/06 10:54:41;;;;;;;;;;;;;;;;;;;;;
2021/07/06 10:57:10;;;;;;;6.50;1.20;;;;;;;;;;4397020;32;20138;-78
2021/07/06 10:59:36;;;;;;;8.30;1.35;;;;;;;;;;4397511;32;20150;-79
2021/07/06 11:02:26;;;;;;;7.30;1.02;;;;;;;;;;4402737;32;20555;-78
2021/07/06 11:04:53;;;;;;;11.00;1.23;;;;;;;;;;4391960;32;20158;-78
2021/07/06 11:07:40;;;;;;;6.18;1.70;;;;;;;;;;4407321;32;20679;-76
2021/07/06 11:10:06;;;;;;;6.03;1.30;;;;;;;;;;4407219;32;20135;-77
2021/07/06 11:12:35;;;;;;;4.03;1.15;;;;;;;;;;4407512;32;20319;-77
2021/07/06 11:15:26;;;;;;;;;;;;;;;;;;;;;
2021/07/06 11:17:59;;;;;;;7.95;1.12;;;;;;;;;;4407839;32;20166;-78
2021/07/06 11:20:36;;;;;;;6.57;1.17;;;;;;;;;;4407150;32;20476;-78
2021/07/06 11:23:05;;;;;;;5.57;1.35;;;;;;;;;;4397017;32;20155;-77
2021/07/06 11:25:31;;;;;;;3.70;1.10;;;;;;;;;;4397173;32;20180;-75
2021/07/06 11:31:20;;;;;;;5.22;1.52;;;;;;;;;;4403451;32;20207;-78
2021/07/06 11:34:08;;;;;;;10.27;1.23;;;;;;;;;;4387144;32;20490;-76
2021/07/06 11:39:24;;;;;;;7.12;1.37;;;;;;;;;;4397477;32;20160;-77
2021/07/06 11:41:49;;;;;;;5.75;1.23;;;;;;;;;;4392374;32;20223;-78
2021/07/06 11:44:18;;;;;;;6.10;1.37;;;;;;;;;;4391690;32;20580;-77
2021/07/06 11:46:44;;;;;;;6.03;1.48;;;;;;;;;;4395834;32;20146;-78
2021/07/06 11:49:09;;;;;;;6.40;1.20;;;;;;;;;;4392096;32;20164;-77
2021/07/06 11:51:43;;;;;;;10.38;1.33;;;;;;;;;;4391872;32;20135;-79
2021/07/06 11:54:08;;;;;;;8.45;1.60;;;;;;;;;;4392630;32;20523;-77
2021/07/06 11:56:36;;;;;;;5.65;1.58;;;;;;;;;;4404551;32;20154;-78
2021/07/06 11:59:10;;;;;;;4.40;1.17;;;;;;;;;;4402041;32;20150;-78
2021/07/06 12:01:35;;;;;;;5.03;1.23;;;;;;;;;;4392131;32;20479;-78
2021/07/06 12:04:15;;;;;;;3.03;1.20;;;;;;;;;;4383400;32;20215;-78
2021/07/06 12:06:46;;;;;;;4.60;1.20;;;;;;;;;;4407133;32;20161;-77
2021/07/06 12:09:42;;;;;;;6.55;1.27;;;;;;;;;;4407076;32;20130;-77
2021/07/06 12:12:09;;;;;;;6.97;1.50;;;;;;;;;;4406211;32;20227;-78
2021/07/06 12:14:34;;;;;;;9.32;1.50;;;;;;;;;;4392105;32;20185;-79
2021/07/06 12:17:00;;;;;;;9.70;1.35;;;;;;;;;;4405992;32;20204;-78
2021/07/06 12:19:27;;;;;;;6.40;1.02;;;;;;;;;;4406410;32;20478;-79
2021/07/06 12:21:53;;;;;;;11.45;1.50;;;;;;;;;;4402964;32;20648;-75
2021/07/06 12:24:27;;;;;;;5.22;1.48;;;;;;;;;;4390020;32;20213;-78
2021/07/06 12:26:55;;;;;;;5.00;1.08;;;;;;;;;;4391306;32;20539;-78
2021/07/06 12:29:30;;;;;;;5.87;1.30;;;;;;;;;;4402693;32;20142;-76
2021/07/06 12:31:56;;;;;;;6.37;1.10;;;;;;;;;;4406735;32;20228;-78
2021/07/06 12:34:57;;;;;;;5.03;1.37;;;;;;;;;;4397439;32;20154;-78
2021/07/06 12:37:26;;;;;;;5.03;1.20;;;;;;;;;;4391368;32;20415;-78
2021/07/06 12:40:00;;;;;;;5.80;1.30;;;;;;;;;;4391206;32;20161;-77
2021/07/06 12:42:27;;;;;;;6.32;1.12;;;;;;;;;;4392386;32;20548;-78
2021/07/06 12:44:54;;;;;;;5.50;1.33;;;;;;;;;;4395425;32;20176;-79
2021/07/06 12:47:37;;;;;;;;;;;;;;;;;;;;;
2021/07/06 12:50:14;;;;;;;9.10;1.58;;;;;;;;;;4406940;32;20134;-78
2021/07/06 12:52:41;;;;;;;11.63;1.40;;;;;;;;;;4391068;32;20193;-76
2021/07/06 12:55:07;;;;;;;4.97;1.10;;;;;;;;;;4405201;32;20174;-78
2021/07/06 12:57:33;;;;;;;6.05;1.45;;;;;;;;;;4390438;32;20158;-79
2021/07/06 13:00:13;;;;;;;6.28;1.30;;;;;;;;;;4391025;32;20178;-78
2021/07/06 13:02:39;;;;;;;9.10;1.80;;;;;;;;;;4387796;32;20684;-77
2021/07/06 13:05:08;;;;;;;9.48;1.20;;;;;;;;;;4405612;32;20153;-78
2021/07/06 13:07:33;;;;;;;9.52;1.42;;;;;;;;;;4406145;32;20184;-79
2021/07/06 13:10:05;;;;;;;6.45;1.37;;;;;;;;;;4406063;32;20371;-79
2021/07/06 13:12:30;;;;;;;9.18;1.27;;;;;;;;;;4391725;32;20244;-79
2021/07/06 13:14:55;;;;;;;2.50;1.23;;;;;;;;;;4405729;32;20543;-79
2021/07/06 13:17:30;;;;;;;5.68;1.00;;;;;;;;;;4391917;32;20158;-79
2021/07/06 13:19:59;;;;;;;3.10;0.85;;;;;;;;;;4405404;32;20613;-79
2021/07/06 13:22:24;;;;;;;3.80;1.08;;;;;;;;;;4405325;32;20215;-78
2021/07/06 13:24:49;;;;;;;3.85;1.12;;;;;;;;;;4390708;32;20555;-78
2021/07/06 13:27:14;;;;;;;5.35;1.20;;;;;;;;;;4390590;32;20153;-80
2021/07/06 13:29:40;;;;;;;7.75;1.10;;;;;;;;;;4387679;32;20240;-79
2021/07/06 13:32:07;;;;;;;3.95;1.30;;;;;;;;;;4388247;32;20232;-78
2021/07/06 13:34:45;;;;;;;3.90;1.37;;;;;;;;;;4389573;32;20146;-78
2021/07/06 13:37:19;;;;;;;6.90;1.50;;;;;;;;;;4400137;32;20168;-81
2021/07/06 13:39:45;;;;;;;4.12;1.25;;;;;;;;;;4405667;32;20133;-78
2021/07/06 13:42:10;;;;;;;4.82;1.65;;;;;;;;;;4387922;32;20248;-79
2021/07/06 13:44:46;;;;;;;4.05;1.20;;;;;;;;;;4390911;32;20165;-79
2021/07/06 13:47:11;;;;;;;4.55;1.55;;;;;;;;;;4397558;32;20217;-78
2021/07/06 13:49:37;;;;;;;5.82;1.80;;;;;;;;;;4401004;32;20184;-77
2021/07/06 13:52:03;;;;;;;6.22;1.40;;;;;;;;;;4379759;32;20154;-76
2021/07/06 13:54:31;;;;;;;4.53;1.30;;;;;;;;;;4391329;32;20220;-80
2021/07/06 13:56:58;;;;;;;2.50;1.25;;;;;;;;;;4406750;32;20123;-78
2021/07/06 13:59:30;;;;;;;2.35;0.93;;;;;;;;;;4405652;32;20121;-78
2021/07/06 14:01:58;;;;;;;1.67;0.85;;;;;;;;;;4405408;32;20134;-77
2021/07/06 14:04:23;;;;;;;5.93;1.17;;;;;;;;;;4405196;32;20245;-76
2021/07/06 14:06:51;;;;;;;4.65;1.23;;;;;;;;;;4402280;32;20566;-76
2021/07/06 14:09:19;;;;;;;6.32;1.83;;;;;;;;;;4395059;32;20138;-76
2021/07/06 14:11:47;;;;;;;5.25;1.80;;;;;;;;;;4399867;32;20172;-77
2021/07/06 14:14:13;;;;;;;2.72;1.45;;;;;;;;;;4399252;32;20138;-76
2021/07/06 14:16:51;;;;;;;3.15;1.70;;;;;;;;;;4396727;32;20207;-76
2021/07/06 14:19:23;;;;;;;2.35;1.10;;;;;;;;;;4399765;32;20223;-76
2021/07/06 14:21:52;;;;;;;4.75;1.10;;;;;;;;;;4405376;32;20166;-76
2021/07/06 14:24:17;;;;;;;2.95;1.00;;;;;;;;;;4404830;32;20204;-77
2021/07/06 14:26:42;;;;;;;3.92;1.08;;;;;;;;;;4400051;32;20146;-78
2021/07/06 14:29:09;;;;;;;2.87;1.15;;;;;;;;;;4390057;32;20287;-78
2021/07/06 14:31:35;;;;;;;3.15;0.90;;;;;;;;;;4389710;32;20169;-78
2021/07/06 14:34:03;;;;;;;2.33;1.00;;;;;;;;;;4388538;32;20233;-77
2021/07/06 14:36:28;;;;;;;2.53;0.90;;;;;;;;;;4389838;32;20150;-79
2021/07/06 14:38:53;;;;;;;3.47;1.15;;;;;;;;;;4390278;32;20157;-78
2021/07/06 14:41:19;;;;;;;4.62;1.10;;;;;;;;;;4394947;32;20185;-77
2021/07/06 14:43:44;;;;;;;4.15;1.00;;;;;;;;;;4388076;32;20182;-78
2021/07/06 14:46:10;;;;;;;4.53;1.33;;;;;;;;;;4407477;32;20187;-80
2021/07/06 14:48:49;;;;;;;5.78;1.15;;;;;;;;;;4408174;32;20191;-78
2021/07/06 14:51:14;;;;;;;4.18;1.10;;;;;;;;;;4394524;32;20158;-79
2021/07/06 14:53:39;;;;;;;4.50;1.25;;;;;;;;;;4407770;32;20199;-79
2021/07/06 14:56:13;;;;;;;7.25;1.50;;;;;;;;;;4405170;32;20228;-79
2021/07/06 14:58:40;;;;;;;4.70;0.90;;;;;;;;;;4395109;32;20177;-79
2021/07/06 15:01:11;;;;;;;4.22;0.93;;;;;;;;;;4407839;32;20181;-80
2021/07/06 15:03:36;;;;;;;5.00;1.15;;;;;;;;;;4393744;32;20510;-79
2021/07/06 15:06:04;;;;;;;3.45;1.10;;;;;;;;;;4408348;32;20213;-79
2021/07/06 15:08:32;;;;;;;6.25;1.20;;;;;;;;;;4407816;32;20170;-81
2021/07/06 15:10:58;;;;;;;4.45;1.10;;;;;;;;;;4407457;32;20131;-79
2021/07/06 15:13:27;;;;;;;6.05;1.50;;;;;;;;;;4407963;32;20177;-78
2021/07/06 15:16:37;;;;;;;5.93;1.55;;;;;;;;;;4407668;32;20150;-79
2021/07/06 15:18:38;;;;;;;4.03;1.67;;;;;;;;;;4399810;32;20165;-78
2021/07/06 15:21:06;;;;;;;7.32;2.12;;;;;;;;;;4407604;32;20138;-80
2021/07/06 15:23:31;;;;;;;6.53;1.45;;;;;;;;;;4407227;32;20146;-77
2021/07/06 15:25:57;;;;;;;4.40;1.05;;;;;;;;;;4392730;32;20173;-78
2021/07/06 15:28:29;;;;;;;3.97;1.33;;;;;;;;;;4391338;32;20154;-80
2021/07/06 15:31:05;;;;;;;3.58;0.85;;;;;;;;;;4392719;32;20159;-80
2021/07/06 15:33:33;;;;;;;1.75;0.70;;;;;;;;;;4392947;32;20169;-80
2021/07/06 15:36:01;;;;;;;5.57;1.05;;;;;;;;;;4407703;32;20677;-79
2021/07/06 15:38:27;;;;;;;4.50;1.12;;;;;;;;;;4407082;32;20141;-78
2021/07/06 15:40:55;;;;;;;4.62;1.27;;;;;;;;;;4393291;32;20157;-79
2021/07/06 15:43:20;;;;;;;3.37;0.93;;;;;;;;;;4407565;32;20153;-80
2021/07/06 15:45:46;;;;;;;4.43;1.10;;;;;;;;;;4393706;32;20220;-77
2021/07/06 15:48:14;;;;;;;6.15;1.10;;;;;;;;;;4407530;32;20239;-79
2021/07/06 15:50:42;;;;;;;3.72;1.20;;;;;;;;;;4406980;32;20173;-79
2021/07/06 15:53:08;;;;;;;6.32;1.65;;;;;;;;;;4406970;32;20160;-78
2021/07/06 15:55:33;;;;;;;5.47;1.20;;;;;;;;;;4406487;32;20162;-79
2021/07/06 15:58:04;;;;;;;3.87;1.00;;;;;;;;;;4406581;32;20204;-79
2021/07/06 16:00:33;;;;;;;4.30;1.10;;;;;;;;;;4407102;32;20192;-79
2021/07/06 16:03:00;;;;;;;2.70;0.88;;;;;;;;;;4406918;32;20172;-79